createdAt,value
2022-12-08T00:00:09.323Z,82.52
2022-12-08T00:01:09.352Z,82.34
2022-12-08T00:02:09.511Z,82.15
2022-12-08T00:03:09.533Z,81.37
2022-12-08T00:04:09.344Z,80.87
2022-12-08T00:05:09.349Z,80.6
2022-12-08T00:06:09.330Z,80.49
2022-12-08T00:07:09.316Z,80.87
2022-12-08T00:08:09.392Z,80.53
2022-12-08T00:09:09.322Z,80.53
2022-12-08T00:10:39.522Z,80.91
2022-12-08T00:11:09.320Z,80.75
2022-12-08T00:12:09.311Z,80.66
2022-12-08T00:13:09.311Z,80.99
2022-12-08T00:14:09.334Z,80.82
2022-12-08T00:15:09.309Z,80.52
2022-12-08T00:16:09.428Z,80.36
2022-12-08T00:17:09.314Z,80.14
2022-12-08T00:18:09.321Z,80.14
2022-12-08T00:19:09.326Z,80.04
2022-12-08T00:20:09.311Z,79.76
2022-12-08T00:21:09.308Z,79.87
2022-12-08T00:22:09.308Z,80.09
2022-12-08T00:23:09.310Z,80.25
2022-12-08T00:24:09.332Z,80.49
2022-12-08T00:25:09.313Z,80.54
2022-12-08T00:26:09.316Z,80.23
2022-12-08T00:27:09.330Z,80.23
2022-12-08T00:28:09.329Z,79.81
2022-12-08T00:29:14.458Z,79.57
2022-12-08T00:30:09.326Z,79.7
2022-12-08T00:31:09.348Z,80.23
2022-12-08T00:32:09.429Z,79.95
2022-12-08T00:33:09.333Z,80.19
2022-12-08T00:34:09.444Z,80.25
2022-12-08T00:35:09.324Z,80.07
2022-12-08T00:36:09.338Z,80.3
2022-12-08T00:37:09.327Z,80.43
2022-12-08T00:38:09.329Z,80.53
2022-12-08T00:39:09.377Z,80.75
2022-12-08T00:40:09.337Z,80.79
2022-12-08T00:41:09.333Z,80.83
2022-12-08T00:42:09.325Z,80.71
2022-12-08T00:43:09.333Z,80.74
2022-12-08T00:44:09.353Z,80.97
2022-12-08T00:45:09.336Z,80.67
2022-12-08T00:46:09.422Z,79.94
2022-12-08T00:47:09.329Z,79.7
2022-12-08T00:48:09.325Z,79.8
2022-12-08T00:49:09.353Z,79.32
2022-12-08T00:50:09.315Z,79.25
2022-12-08T00:51:09.332Z,79.11
2022-12-08T00:52:09.334Z,79.57
2022-12-08T00:53:09.331Z,79.94
2022-12-08T00:54:09.345Z,79.91
2022-12-08T00:55:09.330Z,80.36
2022-12-08T00:56:09.328Z,80.27
2022-12-08T00:57:09.338Z,80.35
2022-12-08T00:58:09.338Z,80.55
2022-12-08T00:59:09.353Z,80.39
2022-12-08T01:00:09.323Z,80.07
2022-12-08T01:01:09.433Z,80.33
2022-12-08T01:02:09.378Z,80.32
2022-12-08T01:03:09.452Z,80.23
2022-12-08T01:04:09.498Z,80.66
2022-12-08T01:05:09.334Z,80.4
2022-12-08T01:06:09.336Z,80.52
2022-12-08T01:07:09.331Z,80.45
2022-12-08T01:08:09.443Z,80.81
2022-12-08T01:09:09.349Z,80.65
2022-12-08T01:10:09.331Z,80.99
2022-12-08T01:11:09.326Z,81.07
2022-12-08T01:12:09.333Z,81.07
2022-12-08T01:13:09.325Z,81.79
2022-12-08T01:14:09.342Z,81.79
2022-12-08T01:15:09.327Z,81.8
2022-12-08T01:16:09.433Z,81.89
2022-12-08T01:17:09.442Z,81.93
2022-12-08T01:18:09.334Z,80.88
2022-12-08T01:19:09.713Z,81.29
2022-12-08T01:20:09.310Z,80.88
2022-12-08T01:21:09.312Z,80.94
2022-12-08T01:22:09.318Z,80.85
2022-12-08T01:23:09.311Z,80.46
2022-12-08T01:24:09.328Z,80.09
2022-12-08T01:25:09.307Z,80.02
2022-12-08T01:26:09.331Z,79.59
2022-12-08T01:27:09.310Z,79.48
2022-12-08T01:28:09.308Z,79.61
2022-12-08T01:29:09.323Z,79.44
2022-12-08T01:30:09.325Z,79.21
2022-12-08T01:31:09.398Z,78.88
2022-12-08T01:32:09.312Z,78.83
2022-12-08T01:33:09.326Z,78.87
2022-12-08T01:34:09.329Z,78.58
2022-12-08T01:35:09.312Z,78.46
2022-12-08T01:36:09.317Z,79.32
2022-12-08T01:37:09.314Z,80.38
2022-12-08T01:38:09.318Z,80.33
2022-12-08T01:39:09.333Z,79.96
2022-12-08T01:40:09.317Z,79.33
2022-12-08T01:41:09.319Z,79.16
2022-12-08T01:42:09.311Z,79.11
2022-12-08T01:43:09.316Z,79.02
2022-12-08T01:44:09.330Z,78.76
2022-12-08T01:45:09.328Z,78.66
2022-12-08T01:46:09.463Z,78.6
2022-12-08T01:47:09.326Z,78.69
2022-12-08T01:48:09.455Z,78.95
2022-12-08T01:49:09.389Z,79.01
2022-12-08T01:50:09.325Z,78.83
2022-12-08T01:51:09.330Z,78.78
2022-12-08T01:52:09.328Z,78.6
2022-12-08T01:53:09.335Z,78.61
2022-12-08T01:54:09.343Z,78.56
2022-12-08T01:55:09.337Z,78.34
2022-12-08T01:56:09.335Z,78.34
2022-12-08T01:57:09.326Z,78.53
2022-12-08T01:58:09.323Z,78.24
2022-12-08T01:59:09.345Z,78.12
2022-12-08T02:00:09.314Z,78.02
2022-12-08T02:01:09.460Z,77.94
2022-12-08T02:02:09.402Z,77.79
2022-12-08T02:03:09.365Z,77.61
2022-12-08T02:04:09.352Z,77.64
2022-12-08T02:05:09.314Z,77.59
2022-12-08T02:06:09.328Z,77.92
2022-12-08T02:07:09.331Z,78.2
2022-12-08T02:08:09.522Z,78.04
2022-12-08T02:09:09.363Z,77.69
2022-12-08T02:10:09.337Z,77.92
2022-12-08T02:11:09.466Z,77.69
2022-12-08T02:12:09.330Z,77.37
2022-12-08T02:13:09.335Z,77.36
2022-12-08T02:14:09.348Z,77.34
2022-12-08T02:15:09.321Z,77.25
2022-12-08T02:16:09.494Z,77.21
2022-12-08T02:17:09.326Z,77.25
2022-12-08T02:18:09.340Z,77.1
2022-12-08T02:19:30.200Z,77.18
2022-12-08T02:20:09.321Z,78.17
2022-12-08T02:21:09.331Z,78.69
2022-12-08T02:22:09.336Z,78.61
2022-12-08T02:23:09.327Z,78.58
2022-12-08T02:24:09.343Z,78.88
2022-12-08T02:25:09.336Z,78.88
2022-12-08T02:26:09.323Z,78.46
2022-12-08T02:27:09.330Z,78.29
2022-12-08T02:28:09.336Z,78.64
2022-12-08T02:29:09.341Z,79.28
2022-12-08T02:30:09.316Z,79.09
2022-12-08T02:31:09.436Z,78.51
2022-12-08T02:32:09.341Z,78.85
2022-12-08T02:33:09.335Z,79.29
2022-12-08T02:34:09.399Z,79.72
2022-12-08T02:35:09.328Z,79.72
2022-12-08T02:36:09.317Z,79.96
2022-12-08T02:37:09.315Z,80.67
2022-12-08T02:38:09.317Z,79.61
2022-12-08T02:39:09.335Z,81.14
2022-12-08T02:40:09.365Z,81.48
2022-12-08T02:41:09.343Z,82.13
2022-12-08T02:42:09.317Z,82.28
2022-12-08T02:43:09.323Z,82.51
2022-12-08T02:44:09.333Z,82.75
2022-12-08T02:45:09.317Z,82.09
2022-12-08T02:46:09.403Z,81.52
2022-12-08T02:47:09.319Z,80.95
2022-12-08T02:48:09.319Z,81.31
2022-12-08T02:49:09.339Z,81.86
2022-12-08T02:50:09.331Z,81.47
2022-12-08T02:51:09.332Z,81.88
2022-12-08T02:52:09.324Z,81.35
2022-12-08T02:54:09.338Z,81.5
2022-12-08T02:55:09.323Z,81.43
2022-12-08T02:56:09.329Z,80.59
2022-12-08T02:57:09.349Z,81.63
2022-12-08T02:58:09.324Z,81.66
2022-12-08T02:59:09.344Z,81.41
2022-12-08T03:00:09.362Z,82.23
2022-12-08T03:01:09.465Z,82.16
2022-12-08T03:02:09.393Z,83.01
2022-12-08T03:03:09.448Z,83.01
2022-12-08T03:04:09.357Z,83.14
2022-12-08T03:05:09.332Z,82.88
2022-12-08T03:06:09.340Z,81.95
2022-12-08T03:07:09.335Z,83.09
2022-12-08T03:08:09.365Z,82.55
2022-12-08T03:09:09.352Z,82.39
2022-12-08T03:10:09.341Z,82.69
2022-12-08T03:11:09.342Z,82.4
2022-12-08T03:12:09.336Z,82.36
2022-12-08T03:13:09.330Z,82.77
2022-12-08T03:14:09.349Z,82.29
2022-12-08T03:15:09.340Z,90.47
2022-12-08T03:16:09.444Z,81.33
2022-12-08T03:17:09.342Z,80.73
2022-12-08T03:18:09.333Z,80.96
2022-12-08T03:19:09.350Z,80.24
2022-12-08T03:20:09.404Z,79.96
2022-12-08T03:21:09.332Z,79.89
2022-12-08T03:22:09.337Z,79.92
2022-12-08T03:23:09.411Z,79.83
2022-12-08T03:24:09.347Z,79.62
2022-12-08T03:25:09.316Z,79.25
2022-12-08T03:26:09.379Z,79.11
2022-12-08T03:27:09.336Z,79.09
2022-12-08T03:28:09.352Z,79.22
2022-12-08T03:29:09.433Z,78.99
2022-12-08T03:30:09.371Z,79.21
2022-12-08T03:31:09.395Z,79.33
2022-12-08T03:32:09.345Z,79.23
2022-12-08T03:33:09.337Z,79.23
2022-12-08T03:34:09.350Z,79.18
2022-12-08T03:35:09.331Z,79.32
2022-12-08T03:36:09.343Z,79.32
2022-12-08T03:37:09.341Z,79.32
2022-12-08T03:38:09.334Z,79.43
2022-12-08T03:39:09.346Z,79.21
2022-12-08T03:40:09.333Z,79.21
2022-12-08T03:41:09.332Z,78.99
2022-12-08T03:42:09.340Z,79.78
2022-12-08T03:43:09.335Z,79.73
2022-12-08T03:44:09.351Z,79.62
2022-12-08T03:45:09.340Z,79.51
2022-12-08T03:46:09.381Z,79.31
2022-12-08T03:47:09.334Z,79.95
2022-12-08T03:48:09.319Z,79.81
2022-12-08T03:49:09.349Z,79.69
2022-12-08T03:50:09.317Z,80.62
2022-12-08T03:51:09.321Z,81.2
2022-12-08T03:52:09.317Z,80.45
2022-12-08T03:53:09.327Z,80.18
2022-12-08T03:54:09.331Z,79.96
2022-12-08T03:55:09.325Z,79.37
2022-12-08T03:56:09.318Z,79.24
2022-12-08T03:57:09.328Z,79.34
2022-12-08T03:58:09.318Z,79.51
2022-12-08T03:59:09.337Z,79.17
2022-12-08T04:00:09.332Z,79.03
2022-12-08T04:01:09.338Z,79.13
2022-12-08T04:02:09.391Z,78.82
2022-12-08T04:03:09.384Z,78.43
2022-12-08T04:04:09.520Z,78.32
2022-12-08T04:05:09.322Z,78.59
2022-12-08T04:06:09.467Z,78.92
2022-12-08T04:07:09.321Z,78.49
2022-12-08T04:08:09.372Z,78.59
2022-12-08T04:09:09.337Z,78.54
2022-12-08T04:10:09.318Z,79.2
2022-12-08T04:11:09.336Z,79.38
2022-12-08T04:12:09.337Z,79.35
2022-12-08T04:13:09.329Z,79.81
2022-12-08T04:14:09.354Z,79.7
2022-12-08T04:15:09.326Z,79.81
2022-12-08T04:16:09.416Z,79.62
2022-12-08T04:17:09.337Z,79.44
2022-12-08T04:18:09.351Z,80.23
2022-12-08T04:19:09.356Z,80.23
2022-12-08T04:20:09.336Z,80.66
2022-12-08T04:21:09.319Z,80.45
2022-12-08T04:22:09.354Z,80.5
2022-12-08T04:23:11.995Z,80.98
2022-12-08T04:24:09.345Z,81.56
2022-12-08T04:25:09.347Z,80.8
2022-12-08T04:26:09.328Z,81.25
2022-12-08T04:27:09.343Z,81.74
2022-12-08T04:28:09.344Z,81.66
2022-12-08T04:29:09.360Z,81.53
2022-12-08T04:30:09.341Z,82.27
2022-12-08T04:31:09.456Z,82.12
2022-12-08T04:32:09.328Z,82.48
2022-12-08T04:33:09.335Z,82.12
2022-12-08T04:34:09.388Z,82.4
2022-12-08T04:35:09.333Z,83
2022-12-08T04:36:09.343Z,82.14
2022-12-08T04:37:09.421Z,81.89
2022-12-08T04:38:09.340Z,81.77
2022-12-08T04:39:09.356Z,81.22
2022-12-08T04:40:09.329Z,80.78
2022-12-08T04:41:09.342Z,80.12
2022-12-08T04:42:09.335Z,79.9
2022-12-08T04:43:09.336Z,79.72
2022-12-08T04:44:09.353Z,80.1
2022-12-08T04:45:09.327Z,80.1
2022-12-08T04:46:09.495Z,80.85
2022-12-08T04:47:09.389Z,81.66
2022-12-08T04:48:09.341Z,82.31
2022-12-08T04:49:09.357Z,82.53
2022-12-08T04:50:09.324Z,82.08
2022-12-08T04:51:09.334Z,82.32
2022-12-08T04:52:09.348Z,82.26
2022-12-08T04:53:09.328Z,82.93
2022-12-08T04:54:09.337Z,83.35
2022-12-08T04:55:09.325Z,82.59
2022-12-08T04:56:09.318Z,83.06
2022-12-08T04:57:09.317Z,83.75
2022-12-08T04:58:09.319Z,83.66
2022-12-08T04:59:09.333Z,83.64
2022-12-08T05:00:09.326Z,83.69
2022-12-08T05:01:09.392Z,83.69
2022-12-08T05:02:09.441Z,83.53
2022-12-08T05:03:09.323Z,83.42
2022-12-08T05:04:09.352Z,83.97
2022-12-08T05:05:09.323Z,84.42
2022-12-08T05:06:09.321Z,84.61
2022-12-08T05:07:09.322Z,85.09
2022-12-08T05:08:09.464Z,85.42
2022-12-08T05:09:09.344Z,86.71
2022-12-08T05:10:09.333Z,85.99
2022-12-08T05:11:09.331Z,85.79
2022-12-08T05:12:09.325Z,85.9
2022-12-08T05:13:09.327Z,86.51
2022-12-08T05:14:09.336Z,85.82
2022-12-08T05:15:09.327Z,85.62
2022-12-08T05:16:09.443Z,86.17
2022-12-08T05:17:09.844Z,86.52
2022-12-08T05:18:09.319Z,86.2
2022-12-08T05:19:09.356Z,86.13
2022-12-08T05:20:09.326Z,85.4
2022-12-08T05:21:09.319Z,85.4
2022-12-08T05:22:09.337Z,88.06
2022-12-08T05:23:09.339Z,88.87
2022-12-08T05:24:09.354Z,88.69
2022-12-08T05:25:09.330Z,88.52
2022-12-08T05:26:09.350Z,88.2
2022-12-08T05:27:09.359Z,88.53
2022-12-08T05:28:39.759Z,88.95
2022-12-08T05:29:09.354Z,88.53
2022-12-08T05:30:09.335Z,88.61
2022-12-08T05:31:09.443Z,88.94
2022-12-08T05:32:09.402Z,88.64
2022-12-08T05:33:09.347Z,88.26
2022-12-08T05:34:09.354Z,87.84
2022-12-08T05:35:09.339Z,87.64
2022-12-08T05:36:09.362Z,87.34
2022-12-08T05:37:09.340Z,87.71
2022-12-08T05:38:09.338Z,87.24
2022-12-08T05:39:09.409Z,87.2
2022-12-08T05:40:09.328Z,86.98
2022-12-08T05:41:09.341Z,87.71
2022-12-08T05:42:09.336Z,87.75
2022-12-08T05:43:09.348Z,87.81
2022-12-08T05:44:09.361Z,88.39
2022-12-08T05:45:09.342Z,88.04
2022-12-08T05:46:09.392Z,87.62
2022-12-08T05:47:09.336Z,87.86
2022-12-08T05:48:09.334Z,87.72
2022-12-08T05:49:09.338Z,88.39
2022-12-08T05:50:09.335Z,87.89
2022-12-08T05:51:09.334Z,87.91
2022-12-08T05:52:09.345Z,87.8
2022-12-08T05:53:09.349Z,88.17
2022-12-08T05:54:09.351Z,88.86
2022-12-08T05:55:09.345Z,88.63
2022-12-08T05:56:09.337Z,88.7
2022-12-08T05:57:09.352Z,88.57
2022-12-08T05:58:09.343Z,88.3
2022-12-08T05:59:09.370Z,88.3
2022-12-08T06:00:09.411Z,89.33
2022-12-08T06:01:09.387Z,89.23
2022-12-08T06:02:09.484Z,89.04
2022-12-08T06:03:09.339Z,89.58
2022-12-08T06:04:09.403Z,89.67
2022-12-08T06:05:09.331Z,89.32
2022-12-08T06:06:09.336Z,89.89
2022-12-08T06:07:14.550Z,89.4
2022-12-08T06:08:09.387Z,89.41
2022-12-08T06:09:09.352Z,90.25
2022-12-08T06:10:09.433Z,89.73
2022-12-08T06:11:09.337Z,89.53
2022-12-08T06:12:09.316Z,89.05
2022-12-08T06:13:09.326Z,89.54
2022-12-08T06:14:09.333Z,89.36
2022-12-08T06:15:09.317Z,88.78
2022-12-08T06:16:09.418Z,89.72
2022-12-08T06:17:09.360Z,89.62
2022-12-08T06:18:09.325Z,90.01
2022-12-08T06:19:09.345Z,89.44
2022-12-08T06:20:09.330Z,89.19
2022-12-08T06:21:09.322Z,89.36
2022-12-08T06:22:09.326Z,88.46
2022-12-08T06:23:09.324Z,88.4
2022-12-08T06:24:09.378Z,89.25
2022-12-08T06:25:10.280Z,88.66
2022-12-08T06:26:09.320Z,88.58
2022-12-08T06:27:09.322Z,89.08
2022-12-08T06:28:09.326Z,90.08
2022-12-08T06:29:09.336Z,88.85
2022-12-08T06:30:09.329Z,89.29
2022-12-08T06:31:09.357Z,89.9
2022-12-08T06:32:09.384Z,89.11
2022-12-08T06:33:09.334Z,87.33
2022-12-08T06:34:09.356Z,87.38
2022-12-08T06:35:09.341Z,87.35
2022-12-08T06:36:09.345Z,87.54
2022-12-08T06:37:09.342Z,86.91
2022-12-08T06:38:09.346Z,86.85
2022-12-08T06:39:09.351Z,87.54
2022-12-08T06:40:09.335Z,87.47
2022-12-08T06:41:09.339Z,86.39
2022-12-08T06:42:09.336Z,86.23
2022-12-08T06:43:09.336Z,85.36
2022-12-08T06:44:09.356Z,86.04
2022-12-08T06:45:09.336Z,85.92
2022-12-08T06:46:09.417Z,85.22
2022-12-08T06:47:09.328Z,85.82
2022-12-08T06:48:09.336Z,86.2
2022-12-08T06:49:09.358Z,86.31
2022-12-08T06:50:09.326Z,86.57
2022-12-08T06:51:09.348Z,86.38
2022-12-08T06:52:09.347Z,86.42
2022-12-08T06:53:09.334Z,85.87
2022-12-08T06:54:09.348Z,84.8
2022-12-08T06:55:09.338Z,85.24
2022-12-08T06:56:09.340Z,85.1
2022-12-08T06:57:09.322Z,86.15
2022-12-08T06:58:09.339Z,85.59
2022-12-08T06:59:09.363Z,85.25
2022-12-08T07:00:09.349Z,84.61
2022-12-08T07:01:09.439Z,85.04
2022-12-08T07:02:09.487Z,84.79
2022-12-08T07:03:09.339Z,84.48
2022-12-08T07:04:09.369Z,84.78
2022-12-08T07:05:09.333Z,84.75
2022-12-08T07:06:09.333Z,85
2022-12-08T07:07:09.328Z,85.24
2022-12-08T07:08:09.464Z,85.69
2022-12-08T07:09:09.347Z,85.2
2022-12-08T07:10:09.337Z,85.2
2022-12-08T07:11:09.319Z,85.46
2022-12-08T07:12:09.338Z,85.91
2022-12-08T07:13:09.338Z,85.77
2022-12-08T07:14:09.359Z,84.71
2022-12-08T07:15:09.338Z,84.65
2022-12-08T07:16:09.357Z,84.86
2022-12-08T07:17:09.407Z,84.71
2022-12-08T07:18:09.341Z,84.14
2022-12-08T07:19:09.370Z,83.67
2022-12-08T07:20:09.319Z,83.32
2022-12-08T07:21:09.334Z,83.78
2022-12-08T07:22:09.324Z,84.7
2022-12-08T07:23:09.325Z,84.88
2022-12-08T07:24:09.343Z,84.08
2022-12-08T07:25:09.317Z,84.44
2022-12-08T07:26:09.321Z,84.41
2022-12-08T07:27:09.319Z,84.78
2022-12-08T07:28:09.333Z,84.43
2022-12-08T07:29:09.331Z,84.04
2022-12-08T07:30:09.317Z,83.89
2022-12-08T07:31:09.427Z,83.95
2022-12-08T07:32:09.318Z,83.01
2022-12-08T07:33:09.318Z,83.18
2022-12-08T07:34:09.340Z,83.06
2022-12-08T07:35:09.327Z,83.69
2022-12-08T07:36:09.328Z,83.51
2022-12-08T07:37:09.325Z,84.04
2022-12-08T07:38:09.327Z,84.64
2022-12-08T07:39:09.342Z,85.71
2022-12-08T07:40:09.334Z,85.14
2022-12-08T07:41:09.345Z,84.5
2022-12-08T07:42:09.337Z,84.25
2022-12-08T07:43:09.338Z,84.24
2022-12-08T07:44:09.399Z,84.24
2022-12-08T07:45:09.323Z,84.12
2022-12-08T07:46:09.371Z,83.86
2022-12-08T07:47:09.332Z,84.13
2022-12-08T07:48:09.336Z,83.82
2022-12-08T07:49:09.351Z,83.82
2022-12-08T07:50:09.320Z,83.11
2022-12-08T07:51:09.337Z,83.45
2022-12-08T07:52:09.322Z,83.45
2022-12-08T07:53:09.339Z,83.51
2022-12-08T07:54:09.355Z,83.56
2022-12-08T07:55:09.341Z,83.88
2022-12-08T07:56:09.342Z,82.77
2022-12-08T07:57:09.340Z,82.13
2022-12-08T07:58:09.344Z,82.53
2022-12-08T07:59:09.362Z,82.65
2022-12-08T08:00:09.321Z,82.6
2022-12-08T08:01:09.471Z,83.41
2022-12-08T08:02:23.315Z,83.9
2022-12-08T08:03:09.421Z,83.9
2022-12-08T08:04:09.428Z,82.17
2022-12-08T08:05:09.420Z,82.13
2022-12-08T08:06:09.337Z,81.92
2022-12-08T08:07:09.329Z,81.43
2022-12-08T08:08:09.405Z,82.15
2022-12-08T08:09:09.335Z,81.6
2022-12-08T08:10:09.326Z,81.62
2022-12-08T08:11:17.416Z,81.98
2022-12-08T08:12:30.379Z,81.55
2022-12-08T08:13:09.337Z,80.8
2022-12-08T08:14:09.355Z,81.52
2022-12-08T08:15:09.413Z,81.69
2022-12-08T08:16:09.475Z,81.35
2022-12-08T08:17:09.498Z,81.9
2022-12-08T08:18:09.341Z,81.95
2022-12-08T08:19:09.355Z,82.33
2022-12-08T08:20:09.333Z,82.33
2022-12-08T08:21:43.094Z,82.56
2022-12-08T08:22:09.345Z,82.1
2022-12-08T08:23:09.336Z,82.95
2022-12-08T08:24:09.350Z,82.19
2022-12-08T08:25:09.329Z,81.46
2022-12-08T08:26:09.336Z,82.25
2022-12-08T08:27:09.328Z,81.46
2022-12-08T08:28:09.340Z,81.36
2022-12-08T08:29:09.377Z,80.26
2022-12-08T08:30:09.322Z,80.6
2022-12-08T08:31:09.443Z,80.99
2022-12-08T08:32:09.334Z,80.99
2022-12-08T08:33:09.316Z,80.54
2022-12-08T08:34:09.345Z,81.53
2022-12-08T08:35:09.321Z,81.43
2022-12-08T08:36:09.337Z,81.14
2022-12-08T08:37:09.405Z,81.75
2022-12-08T08:38:09.321Z,82
2022-12-08T08:39:09.335Z,82.08
2022-12-08T08:40:09.330Z,81.62
2022-12-08T08:41:09.320Z,81.33
2022-12-08T08:42:09.321Z,81.62
2022-12-08T08:43:09.316Z,82.16
2022-12-08T08:44:09.338Z,81.77
2022-12-08T08:45:09.323Z,81.61
2022-12-08T08:46:09.409Z,81.16
2022-12-08T08:47:09.322Z,80.3
2022-12-08T08:48:09.315Z,79.83
2022-12-08T08:49:09.341Z,80.57
2022-12-08T08:50:09.683Z,80.26
2022-12-08T08:51:09.322Z,79.72
2022-12-08T08:52:09.324Z,79.98
2022-12-08T08:53:09.331Z,79.95
2022-12-08T08:54:09.345Z,80.48
2022-12-08T08:55:09.335Z,80.17
2022-12-08T08:56:09.335Z,79.89
2022-12-08T08:57:09.346Z,79.34
2022-12-08T08:58:09.340Z,79.07
2022-12-08T08:59:09.354Z,79.37
2022-12-08T09:00:09.329Z,79.41
2022-12-08T09:01:09.352Z,79.63
2022-12-08T09:02:09.374Z,80.18
2022-12-08T09:03:09.335Z,80.7
2022-12-08T09:04:09.384Z,79.75
2022-12-08T09:05:09.466Z,80.16
2022-12-08T09:06:09.421Z,80.93
2022-12-08T09:07:09.324Z,80.48
2022-12-08T09:08:09.448Z,80.48
2022-12-08T09:09:09.353Z,80.41
2022-12-08T09:10:09.496Z,79.86
2022-12-08T09:11:09.344Z,80.57
2022-12-08T09:12:09.343Z,80.67
2022-12-08T09:13:09.343Z,80.6
2022-12-08T09:14:09.357Z,80.71
2022-12-08T09:15:09.337Z,80.36
2022-12-08T09:16:09.422Z,80.16
2022-12-08T09:17:09.342Z,80.69
2022-12-08T09:18:09.337Z,80.65
2022-12-08T09:19:09.357Z,80.79
2022-12-08T09:20:09.334Z,80.15
2022-12-08T09:21:09.339Z,81.01
2022-12-08T09:22:09.335Z,80.21
2022-12-08T09:23:09.324Z,79.39
2022-12-08T09:24:09.444Z,79.51
2022-12-08T09:25:09.344Z,79.48
2022-12-08T09:26:09.339Z,79.65
2022-12-08T09:27:09.335Z,79.64
2022-12-08T09:28:09.337Z,79.71
2022-12-08T09:29:09.353Z,79.75
2022-12-08T09:30:09.430Z,80.1
2022-12-08T09:31:09.411Z,80.17
2022-12-08T09:32:09.344Z,80.38
2022-12-08T09:33:09.342Z,80.06
2022-12-08T09:34:09.334Z,80.06
2022-12-08T09:35:09.334Z,81.88
2022-12-08T09:36:09.343Z,80.63
2022-12-08T09:37:09.340Z,80.63
2022-12-08T09:38:09.348Z,81.2
2022-12-08T09:39:09.334Z,81.11
2022-12-08T09:40:09.322Z,80.95
2022-12-08T09:41:09.341Z,81.02
2022-12-08T09:42:09.339Z,79.9
2022-12-08T09:43:09.338Z,79.46
2022-12-08T09:44:09.353Z,78.69
2022-12-08T09:45:09.341Z,77.74
2022-12-08T09:46:09.429Z,78.06
2022-12-08T09:47:09.424Z,78.16
2022-12-08T09:48:09.318Z,77.99
2022-12-08T09:49:09.360Z,77.41
2022-12-08T09:50:09.455Z,76.77
2022-12-08T09:51:09.319Z,76.49
2022-12-08T09:52:09.334Z,76.53
2022-12-08T09:53:09.316Z,76.48
2022-12-08T09:54:09.337Z,75.24
2022-12-08T09:55:09.353Z,75.24
2022-12-08T09:56:09.321Z,74.73
2022-12-08T09:57:09.323Z,74.15
2022-12-08T09:58:09.319Z,74.78
2022-12-08T09:59:09.337Z,74.88
2022-12-08T10:00:09.428Z,75.22
2022-12-08T10:01:09.448Z,74.64
2022-12-08T10:02:09.353Z,74.56
2022-12-08T10:03:13.597Z,75.42
2022-12-08T10:04:09.367Z,74.37
2022-12-08T10:05:09.325Z,75.01
2022-12-08T10:06:09.321Z,74.44
2022-12-08T10:07:09.328Z,74.71
2022-12-08T10:08:09.365Z,73.97
2022-12-08T10:09:12.425Z,74.08
2022-12-08T10:10:09.330Z,74.39
2022-12-08T10:11:09.329Z,74.39
2022-12-08T10:12:09.349Z,75.24
2022-12-08T10:13:09.321Z,75.78
2022-12-08T10:14:09.361Z,76.12
2022-12-08T10:15:09.338Z,76.46
2022-12-08T10:16:09.417Z,75.6
2022-12-08T10:17:09.427Z,75.27
2022-12-08T10:18:09.333Z,74.61
2022-12-08T10:19:09.356Z,74.27
2022-12-08T10:20:09.334Z,74.22
2022-12-08T10:21:09.328Z,74.73
2022-12-08T10:22:09.331Z,74.26
2022-12-08T10:23:09.353Z,73.33
2022-12-08T10:24:09.351Z,73.22
2022-12-08T10:25:09.346Z,73.65
2022-12-08T10:26:09.346Z,74.82
2022-12-08T10:27:09.334Z,74.34
2022-12-08T10:28:09.317Z,73.66
2022-12-08T10:29:09.351Z,74.21
2022-12-08T10:30:09.347Z,74.71
2022-12-08T10:31:09.424Z,74
2022-12-08T10:32:09.359Z,73.37
2022-12-08T10:33:09.331Z,72.93
2022-12-08T10:34:09.356Z,73.44
2022-12-08T10:35:09.338Z,73.51
2022-12-08T10:36:09.343Z,73.63
2022-12-08T10:37:09.339Z,73.35
2022-12-08T10:38:09.352Z,73.4
2022-12-08T10:39:09.332Z,73.8
2022-12-08T10:40:09.332Z,74.24
2022-12-08T10:41:09.347Z,73.99
2022-12-08T10:42:09.344Z,74.32
2022-12-08T10:43:09.337Z,75.68
2022-12-08T10:44:09.353Z,75.02
2022-12-08T10:45:09.356Z,75.72
2022-12-08T10:46:09.469Z,74.18
2022-12-08T10:47:09.463Z,74.01
2022-12-08T10:48:09.343Z,73.65
2022-12-08T10:49:09.351Z,74.17
2022-12-08T10:50:09.336Z,74.07
2022-12-08T10:51:09.351Z,73.35
2022-12-08T10:52:09.347Z,73.11
2022-12-08T10:53:09.340Z,73.75
2022-12-08T10:54:09.353Z,74.77
2022-12-08T10:55:09.328Z,74.44
2022-12-08T10:56:09.342Z,73.65
2022-12-08T10:57:09.335Z,74.09
2022-12-08T10:58:09.339Z,75.16
2022-12-08T10:59:09.339Z,75.55
2022-12-08T11:00:13.826Z,75.42
2022-12-08T11:01:09.392Z,75.41
2022-12-08T11:02:09.360Z,75.07
2022-12-08T11:03:09.384Z,75.21
2022-12-08T11:04:09.511Z,74.68
2022-12-08T11:05:09.338Z,75.86
2022-12-08T11:06:11.050Z,75.83
2022-12-08T11:07:09.351Z,75.85
2022-12-08T11:08:09.377Z,75.62
2022-12-08T11:09:09.356Z,75.17
2022-12-08T11:10:09.329Z,74.75
2022-12-08T11:11:09.320Z,75.15
2022-12-08T11:12:09.317Z,74.55
2022-12-08T11:13:09.327Z,74.44
2022-12-08T11:14:09.346Z,74.71
2022-12-08T11:15:09.316Z,75.28
2022-12-08T11:16:09.402Z,75.54
2022-12-08T11:17:09.316Z,75.1
2022-12-08T11:18:09.328Z,75.04
2022-12-08T11:19:09.337Z,74.56
2022-12-08T11:20:09.657Z,74.52
2022-12-08T11:21:09.327Z,74.35
2022-12-08T11:22:09.331Z,74.7
2022-12-08T11:23:09.321Z,74.69
2022-12-08T11:24:09.334Z,74.01
2022-12-08T11:25:09.323Z,73.53
2022-12-08T11:26:09.327Z,73.98
2022-12-08T11:27:09.323Z,74.19
2022-12-08T11:28:09.324Z,74.21
2022-12-08T11:29:09.440Z,74.17
2022-12-08T11:30:14.098Z,75.83
2022-12-08T11:31:09.398Z,76.19
2022-12-08T11:32:09.489Z,76.13
2022-12-08T11:33:09.333Z,75.84
2022-12-08T11:34:09.364Z,75.51
2022-12-08T11:35:09.318Z,74.7
2022-12-08T11:36:09.341Z,74.36
2022-12-08T11:37:09.339Z,73.67
2022-12-08T11:38:21.016Z,74.56
2022-12-08T11:39:09.356Z,74.44
2022-12-08T11:40:09.616Z,74.59
2022-12-08T11:41:14.226Z,74.3
2022-12-08T11:42:09.343Z,73.29
2022-12-08T11:43:09.330Z,72.81
2022-12-08T11:44:09.349Z,72.46
2022-12-08T11:45:09.336Z,73.26
2022-12-08T11:46:09.433Z,73.54
2022-12-08T11:47:09.358Z,73.07
2022-12-08T11:48:09.350Z,72.73
2022-12-08T11:49:09.349Z,72.66
2022-12-08T11:50:09.347Z,72.67
2022-12-08T11:51:09.340Z,73.04
2022-12-08T11:52:09.336Z,73.25
2022-12-08T11:53:09.319Z,73.33
2022-12-08T11:54:09.353Z,73
2022-12-08T11:55:09.367Z,72.81
2022-12-08T11:56:09.339Z,72.3
2022-12-08T11:57:09.345Z,72.8
2022-12-08T11:58:09.403Z,73.55
2022-12-08T11:59:09.351Z,74.35
2022-12-08T12:00:09.332Z,74.59
2022-12-08T12:01:09.353Z,73.34
2022-12-08T12:02:09.365Z,73.77
2022-12-08T12:03:09.409Z,72.58
2022-12-08T12:04:09.510Z,73.17
2022-12-08T12:05:09.348Z,73.22
2022-12-08T12:06:23.898Z,72.77
2022-12-08T12:07:09.328Z,73.22
2022-12-08T12:08:09.473Z,74.35
2022-12-08T12:09:09.358Z,73.25
2022-12-08T12:10:09.329Z,73.3
2022-12-08T12:11:09.349Z,73.3
2022-12-08T12:12:09.340Z,74.89
2022-12-08T12:13:09.328Z,74.22
2022-12-08T12:14:09.368Z,73.92
2022-12-08T12:15:09.332Z,73.75
2022-12-08T12:16:09.394Z,73.87
2022-12-08T12:17:09.401Z,74.22
2022-12-08T12:18:14.851Z,74.22
2022-12-08T12:19:09.355Z,73.44
2022-12-08T12:20:09.321Z,74.82
2022-12-08T12:21:09.319Z,74.82
2022-12-08T12:22:09.341Z,75.86
2022-12-08T12:23:09.315Z,75.4
2022-12-08T12:24:09.346Z,74.51
2022-12-08T12:25:09.327Z,75.05
2022-12-08T12:26:09.315Z,76.59
2022-12-08T12:27:09.327Z,75.94
2022-12-08T12:28:09.327Z,75.86
2022-12-08T12:29:09.328Z,75.66
2022-12-08T12:30:09.454Z,75.25
2022-12-08T12:31:09.396Z,76.11
2022-12-08T12:32:09.316Z,75.68
2022-12-08T12:33:09.319Z,75.59
2022-12-08T12:34:09.336Z,76.31
2022-12-08T12:35:09.316Z,76.09
2022-12-08T12:36:09.329Z,76.4
2022-12-08T12:37:09.323Z,77.29
2022-12-08T12:38:09.322Z,77.86
2022-12-08T12:39:09.334Z,76.88
2022-12-08T12:40:09.341Z,76.6
2022-12-08T12:41:09.319Z,76.7
2022-12-08T12:42:09.328Z,76.67
2022-12-08T12:43:09.341Z,77.54
2022-12-08T12:44:09.341Z,77.39
2022-12-08T12:45:09.349Z,77.62
2022-12-08T12:46:09.441Z,77.81
2022-12-08T12:47:09.342Z,77.88
2022-12-08T12:48:09.334Z,77.45
2022-12-08T12:49:09.342Z,78.03
2022-12-08T12:50:09.334Z,77.92
2022-12-08T12:51:09.326Z,78.58
2022-12-08T12:52:09.335Z,77.4
2022-12-08T12:53:13.809Z,77.92
2022-12-08T12:54:09.348Z,77.47
2022-12-08T12:55:09.337Z,76.94
2022-12-08T12:56:09.345Z,77.6